sensor_id;sensor_type;location;lat;lon;timestamp;temperature;humidity
17170;DHT22;8700;48.222;16.342;2022-08-25T00:01:28;24.30;99.90
17170;DHT22;8700;48.222;16.342;2022-08-25T00:04:49;24.20;99.90
17170;DHT22;8700;48.222;16.342;2022-08-25T00:08:10;24.20;99.90
17170;DHT22;8700;48.222;16.342;2022-08-25T00:11:33;24.10;99.90
17170;DHT22;8700;48.222;16.342;2022-08-25T00:14:56;24.00;99.90
17170;DHT22;8700;48.222;16.342;2022-08-25T00:18:17;24.00;99.90
17170;DHT22;8700;48.222;16.342;2022-08-25T00:21:39;23.90;99.90
17170;DHT22;8700;48.222;16.342;2022-08-25T00:25:01;24.00;99.90
17170;DHT22;8700;48.222;16.342;2022-08-25T00:28:22;24.00;99.90
17170;DHT22;8700;48.222;16.342;2022-08-25T00:31:45;23.90;99.90
17170;DHT22;8700;48.222;16.342;2022-08-25T00:35:08;24.00;99.90
17170;DHT22;8700;48.222;16.342;2022-08-25T00:38:29;24.00;99.90
17170;DHT22;8700;48.222;16.342;2022-08-25T00:41:52;24.00;99.90
17170;DHT22;8700;48.222;16.342;2022-08-25T00:45:14;24.00;99.90
17170;DHT22;8700;48.222;16.342;2022-08-25T00:48:38;23.90;99.90
17170;DHT22;8700;48.222;16.342;2022-08-25T00:52:03;23.90;99.90
17170;DHT22;8700;48.222;16.342;2022-08-25T00:55:28;23.90;99.90
17170;DHT22;8700;48.222;16.342;2022-08-25T00:58:50;23.80;99.90
17170;DHT22;8700;48.222;16.342;2022-08-25T01:02:13;23.80;99.90
17170;DHT22;8700;48.222;16.342;2022-08-25T01:05:37;23.90;99.90
17170;DHT22;8700;48.222;16.342;2022-08-25T01:08:59;23.90;99.90
17170;DHT22;8700;48.222;16.342;2022-08-25T01:12:21;23.90;99.90
17170;DHT22;8700;48.222;16.342;2022-08-25T01:15:43;23.90;99.90
17170;DHT22;8700;48.222;16.342;2022-08-25T01:19:06;23.90;99.90
17170;DHT22;8700;48.222;16.342;2022-08-25T01:22:29;23.90;99.90
17170;DHT22;8700;48.222;16.342;2022-08-25T01:25:57;24.00;99.90
17170;DHT22;8700;48.222;16.342;2022-08-25T01:29:21;23.90;99.90
17170;DHT22;8700;48.222;16.342;2022-08-25T01:32:44;24.00;99.90
17170;DHT22;8700;48.222;16.342;2022-08-25T01:36:06;23.90;99.90
17170;DHT22;8700;48.222;16.342;2022-08-25T01:39:30;23.90;99.90
17170;DHT22;8700;48.222;16.342;2022-08-25T01:42:57;23.80;99.90
17170;DHT22;8700;48.222;16.342;2022-08-25T01:46:21;23.90;99.90
17170;DHT22;8700;48.222;16.342;2022-08-25T01:49:43;23.90;99.90
17170;DHT22;8700;48.222;16.342;2022-08-25T01:53:08;23.90;99.90
17170;DHT22;8700;48.222;16.342;2022-08-25T01:56:33;24.00;99.90
17170;DHT22;8700;48.222;16.342;2022-08-25T01:59:54;24.00;99.90
17170;DHT22;8700;48.222;16.342;2022-08-25T02:03:16;23.90;99.90
17170;DHT22;8700;48.222;16.342;2022-08-25T02:06:38;24.00;99.90
17170;DHT22;8700;48.222;16.342;2022-08-25T02:10:00;23.80;99.90
17170;DHT22;8700;48.222;16.342;2022-08-25T02:13:24;23.90;99.90
17170;DHT22;8700;48.222;16.342;2022-08-25T02:16:47;23.90;99.90
17170;DHT22;8700;48.222;16.342;2022-08-25T02:20:10;23.80;99.90
17170;DHT22;8700;48.222;16.342;2022-08-25T02:23:31;23.80;99.90
17170;DHT22;8700;48.222;16.342;2022-08-25T02:26:53;23.80;99.90
17170;DHT22;8700;48.222;16.342;2022-08-25T02:30:16;23.80;99.90
17170;DHT22;8700;48.222;16.342;2022-08-25T02:33:37;23.80;99.90
17170;DHT22;8700;48.222;16.342;2022-08-25T02:36:59;23.80;99.90
17170;DHT22;8700;48.222;16.342;2022-08-25T02:40:21;23.80;99.90
17170;DHT22;8700;48.222;16.342;2022-08-25T02:43:43;23.80;99.90
17170;DHT22;8700;48.222;16.342;2022-08-25T02:47:06;23.70;99.90
17170;DHT22;8700;48.222;16.342;2022-08-25T02:50:27;23.70;99.90
17170;DHT22;8700;48.222;16.342;2022-08-25T02:53:49;23.60;99.90
17170;DHT22;8700;48.222;16.342;2022-08-25T02:57:10;23.70;99.90
17170;DHT22;8700;48.222;16.342;2022-08-25T03:00:32;23.80;99.90
17170;DHT22;8700;48.222;16.342;2022-08-25T03:03:56;23.90;99.90
17170;DHT22;8700;48.222;16.342;2022-08-25T03:07:18;23.80;99.90
17170;DHT22;8700;48.222;16.342;2022-08-25T03:10:40;23.90;99.90
17170;DHT22;8700;48.222;16.342;2022-08-25T03:14:01;23.80;99.90
17170;DHT22;8700;48.222;16.342;2022-08-25T03:17:22;23.80;99.90
17170;DHT22;8700;48.222;16.342;2022-08-25T03:20:45;23.80;99.90
17170;DHT22;8700;48.222;16.342;2022-08-25T03:24:07;23.80;99.90
17170;DHT22;8700;48.222;16.342;2022-08-25T03:27:28;23.80;99.90
17170;DHT22;8700;48.222;16.342;2022-08-25T03:30:49;23.80;99.90
17170;DHT22;8700;48.222;16.342;2022-08-25T03:34:10;23.80;99.90
17170;DHT22;8700;48.222;16.342;2022-08-25T03:37:33;23.70;99.90
17170;DHT22;8700;48.222;16.342;2022-08-25T03:40:55;23.60;99.90
17170;DHT22;8700;48.222;16.342;2022-08-25T03:44:18;23.60;99.90
17170;DHT22;8700;48.222;16.342;2022-08-25T03:47:39;23.60;99.90
17170;DHT22;8700;48.222;16.342;2022-08-25T03:51:01;23.60;99.90
17170;DHT22;8700;48.222;16.342;2022-08-25T03:54:24;23.60;99.90
17170;DHT22;8700;48.222;16.342;2022-08-25T03:57:46;23.50;99.90
17170;DHT22;8700;48.222;16.342;2022-08-25T04:01:07;23.50;99.90
17170;DHT22;8700;48.222;16.342;2022-08-25T04:04:29;23.50;99.90
17170;DHT22;8700;48.222;16.342;2022-08-25T04:07:50;23.40;99.90
17170;DHT22;8700;48.222;16.342;2022-08-25T04:11:15;23.30;99.90
17170;DHT22;8700;48.222;16.342;2022-08-25T04:14:37;23.30;99.90
17170;DHT22;8700;48.222;16.342;2022-08-25T04:18:00;23.40;99.90
17170;DHT22;8700;48.222;16.342;2022-08-25T04:21:23;23.40;99.90
17170;DHT22;8700;48.222;16.342;2022-08-25T04:24:45;23.50;99.90
17170;DHT22;8700;48.222;16.342;2022-08-25T04:28:08;23.50;99.90
17170;DHT22;8700;48.222;16.342;2022-08-25T04:31:30;23.60;99.90
17170;DHT22;8700;48.222;16.342;2022-08-25T04:34:51;23.60;99.90
17170;DHT22;8700;48.222;16.342;2022-08-25T04:38:13;23.60;99.90
17170;DHT22;8700;48.222;16.342;2022-08-25T04:41:34;23.50;99.90
17170;DHT22;8700;48.222;16.342;2022-08-25T04:44:57;23.50;99.90
17170;DHT22;8700;48.222;16.342;2022-08-25T04:48:19;23.40;99.90
17170;DHT22;8700;48.222;16.342;2022-08-25T04:51:40;23.40;99.90
17170;DHT22;8700;48.222;16.342;2022-08-25T04:55:02;23.40;99.90
17170;DHT22;8700;48.222;16.342;2022-08-25T04:58:24;23.50;99.90
17170;DHT22;8700;48.222;16.342;2022-08-25T05:01:48;23.60;99.90
17170;DHT22;8700;48.222;16.342;2022-08-25T05:05:09;23.70;99.90
17170;DHT22;8700;48.222;16.342;2022-08-25T05:08:32;23.60;99.90
17170;DHT22;8700;48.222;16.342;2022-08-25T05:11:53;23.60;99.90
17170;DHT22;8700;48.222;16.342;2022-08-25T05:15:15;23.70;99.90
17170;DHT22;8700;48.222;16.342;2022-08-25T05:18:56;23.70;99.90
17170;DHT22;8700;48.222;16.342;2022-08-25T05:22:17;23.70;99.90
17170;DHT22;8700;48.222;16.342;2022-08-25T05:25:38;23.70;99.90
17170;DHT22;8700;48.222;16.342;2022-08-25T05:29:04;23.80;99.90
17170;DHT22;8700;48.222;16.342;2022-08-25T05:32:29;23.80;99.90
17170;DHT22;8700;48.222;16.342;2022-08-25T05:35:52;23.70;99.90
17170;DHT22;8700;48.222;16.342;2022-08-25T05:39:14;23.60;99.90
17170;DHT22;8700;48.222;16.342;2022-08-25T05:42:36;23.70;99.90
17170;DHT22;8700;48.222;16.342;2022-08-25T05:45:58;23.70;99.90
17170;DHT22;8700;48.222;16.342;2022-08-25T05:49:20;23.90;99.90
17170;DHT22;8700;48.222;16.342;2022-08-25T05:52:44;24.00;99.90
17170;DHT22;8700;48.222;16.342;2022-08-25T05:56:06;24.10;99.90
17170;DHT22;8700;48.222;16.342;2022-08-25T05:59:29;24.20;99.90
17170;DHT22;8700;48.222;16.342;2022-08-25T06:02:51;24.20;99.90
17170;DHT22;8700;48.222;16.342;2022-08-25T06:06:11;24.10;99.90
17170;DHT22;8700;48.222;16.342;2022-08-25T06:09:36;24.10;99.90
17170;DHT22;8700;48.222;16.342;2022-08-25T06:12:57;24.10;99.90
17170;DHT22;8700;48.222;16.342;2022-08-25T06:16:19;24.10;99.90
17170;DHT22;8700;48.222;16.342;2022-08-25T06:19:40;24.20;99.90
17170;DHT22;8700;48.222;16.342;2022-08-25T06:23:02;24.10;99.90
17170;DHT22;8700;48.222;16.342;2022-08-25T06:26:25;24.00;99.90
17170;DHT22;8700;48.222;16.342;2022-08-25T06:29:47;24.00;99.90
17170;DHT22;8700;48.222;16.342;2022-08-25T06:33:08;24.00;99.90
17170;DHT22;8700;48.222;16.342;2022-08-25T06:36:29;24.10;99.90
17170;DHT22;8700;48.222;16.342;2022-08-25T06:39:50;24.20;99.90
17170;DHT22;8700;48.222;16.342;2022-08-25T06:43:14;24.20;99.90
17170;DHT22;8700;48.222;16.342;2022-08-25T06:46:35;24.10;99.90
17170;DHT22;8700;48.222;16.342;2022-08-25T06:49:56;24.10;99.90
17170;DHT22;8700;48.222;16.342;2022-08-25T06:53:18;24.20;99.90
17170;DHT22;8700;48.222;16.342;2022-08-25T06:56:40;24.30;99.90
17170;DHT22;8700;48.222;16.342;2022-08-25T07:00:05;24.20;99.90
17170;DHT22;8700;48.222;16.342;2022-08-25T07:03:27;24.00;99.90
17170;DHT22;8700;48.222;16.342;2022-08-25T07:06:48;24.10;99.90
17170;DHT22;8700;48.222;16.342;2022-08-25T07:10:10;24.10;99.90
17170;DHT22;8700;48.222;16.342;2022-08-25T07:13:32;24.20;99.90
17170;DHT22;8700;48.222;16.342;2022-08-25T07:16:55;24.30;99.90
17170;DHT22;8700;48.222;16.342;2022-08-25T07:20:17;24.40;99.90
17170;DHT22;8700;48.222;16.342;2022-08-25T07:23:39;24.60;99.90
17170;DHT22;8700;48.222;16.342;2022-08-25T07:27:00;24.70;99.90
17170;DHT22;8700;48.222;16.342;2022-08-25T07:30:22;24.90;99.90
17170;DHT22;8700;48.222;16.342;2022-08-25T07:33:45;24.80;99.90
17170;DHT22;8700;48.222;16.342;2022-08-25T07:37:21;24.60;99.90
17170;DHT22;8700;48.222;16.342;2022-08-25T07:40:43;24.50;99.90
17170;DHT22;8700;48.222;16.342;2022-08-25T07:44:04;24.50;99.90
17170;DHT22;8700;48.222;16.342;2022-08-25T07:47:26;24.50;99.90
17170;DHT22;8700;48.222;16.342;2022-08-25T07:50:49;24.60;99.90
17170;DHT22;8700;48.222;16.342;2022-08-25T07:54:10;24.70;99.90
17170;DHT22;8700;48.222;16.342;2022-08-25T07:57:32;24.70;99.90
17170;DHT22;8700;48.222;16.342;2022-08-25T08:00:54;24.80;99.90
17170;DHT22;8700;48.222;16.342;2022-08-25T08:04:15;24.90;99.90
17170;DHT22;8700;48.222;16.342;2022-08-25T08:07:38;24.80;99.90
17170;DHT22;8700;48.222;16.342;2022-08-25T08:11:00;24.80;99.90
17170;DHT22;8700;48.222;16.342;2022-08-25T08:14:22;24.90;99.90
17170;DHT22;8700;48.222;16.342;2022-08-25T08:17:44;25.10;99.90
17170;DHT22;8700;48.222;16.342;2022-08-25T08:21:10;25.40;99.90
17170;DHT22;8700;48.222;16.342;2022-08-25T08:24:33;26.00;99.90
17170;DHT22;8700;48.222;16.342;2022-08-25T08:27:57;25.80;99.90
17170;DHT22;8700;48.222;16.342;2022-08-25T08:31:20;25.90;99.90
17170;DHT22;8700;48.222;16.342;2022-08-25T08:34:41;26.20;99.90
17170;DHT22;8700;48.222;16.342;2022-08-25T08:38:03;26.60;99.90
17170;DHT22;8700;48.222;16.342;2022-08-25T08:41:46;27.00;99.90
17170;DHT22;8700;48.222;16.342;2022-08-25T08:45:32;27.70;99.90
17170;DHT22;8700;48.222;16.342;2022-08-25T08:49:01;28.00;99.90
17170;DHT22;8700;48.222;16.342;2022-08-25T08:52:35;28.20;99.90
17170;DHT22;8700;48.222;16.342;2022-08-25T08:56:01;28.80;99.90
17170;DHT22;8700;48.222;16.342;2022-08-25T08:59:41;29.30;99.90
17170;DHT22;8700;48.222;16.342;2022-08-25T09:03:09;29.10;99.90
17170;DHT22;8700;48.222;16.342;2022-08-25T09:06:35;28.70;99.90
17170;DHT22;8700;48.222;16.342;2022-08-25T09:09:58;28.30;99.90
17170;DHT22;8700;48.222;16.342;2022-08-25T09:13:27;28.00;99.90
17170;DHT22;8700;48.222;16.342;2022-08-25T09:16:56;28.30;99.90
17170;DHT22;8700;48.222;16.342;2022-08-25T09:20:39;29.50;99.90
17170;DHT22;8700;48.222;16.342;2022-08-25T09:24:12;30.90;99.90
17170;DHT22;8700;48.222;16.342;2022-08-25T09:27:44;31.90;99.90
17170;DHT22;8700;48.222;16.342;2022-08-25T09:31:14;33.00;99.90
17170;DHT22;8700;48.222;16.342;2022-08-25T09:34:39;33.70;99.90
17170;DHT22;8700;48.222;16.342;2022-08-25T09:38:02;32.80;99.90
17170;DHT22;8700;48.222;16.342;2022-08-25T09:41:43;31.70;99.90
17170;DHT22;8700;48.222;16.342;2022-08-25T09:45:05;30.90;99.90
17170;DHT22;8700;48.222;16.342;2022-08-25T09:48:33;30.60;99.90
17170;DHT22;8700;48.222;16.342;2022-08-25T09:55:58;30.60;99.90
17170;DHT22;8700;48.222;16.342;2022-08-25T09:59:25;32.10;99.90
17170;DHT22;8700;48.222;16.342;2022-08-25T10:03:03;33.30;99.90
17170;DHT22;8700;48.222;16.342;2022-08-25T10:06:26;33.70;99.90
17170;DHT22;8700;48.222;16.342;2022-08-25T10:09:53;34.40;99.90
17170;DHT22;8700;48.222;16.342;2022-08-25T10:13:19;33.60;99.90
17170;DHT22;8700;48.222;16.342;2022-08-25T10:16:43;32.80;99.90
17170;DHT22;8700;48.222;16.342;2022-08-25T10:20:15;31.90;99.90
17170;DHT22;8700;48.222;16.342;2022-08-25T10:23:40;31.80;99.90
17170;DHT22;8700;48.222;16.342;2022-08-25T10:27:13;32.60;99.90
17170;DHT22;8700;48.222;16.342;2022-08-25T10:30:46;33.50;99.90
17170;DHT22;8700;48.222;16.342;2022-08-25T10:34:21;32.80;99.90
17170;DHT22;8700;48.222;16.342;2022-08-25T10:37:50;32.90;99.90
17170;DHT22;8700;48.222;16.342;2022-08-25T10:41:32;33.20;99.90
17170;DHT22;8700;48.222;16.342;2022-08-25T10:45:09;33.30;99.90
17170;DHT22;8700;48.222;16.342;2022-08-25T10:49:00;34.30;99.90
17170;DHT22;8700;48.222;16.342;2022-08-25T10:52:30;33.60;99.90
17170;DHT22;8700;48.222;16.342;2022-08-25T10:56:06;33.10;99.90
17170;DHT22;8700;48.222;16.342;2022-08-25T10:59:40;33.30;99.80
17170;DHT22;8700;48.222;16.342;2022-08-25T11:03:24;33.50;99.60
17170;DHT22;8700;48.222;16.342;2022-08-25T11:06:55;33.60;99.00
17170;DHT22;8700;48.222;16.342;2022-08-25T11:10:23;32.70;99.80
17170;DHT22;8700;48.222;16.342;2022-08-25T11:13:50;33.20;99.70
17170;DHT22;8700;48.222;16.342;2022-08-25T11:17:16;33.80;98.80
17170;DHT22;8700;48.222;16.342;2022-08-25T11:20:45;33.60;98.70
17170;DHT22;8700;48.222;16.342;2022-08-25T11:27:57;32.60;98.60
17170;DHT22;8700;48.222;16.342;2022-08-25T11:31:20;32.50;98.40
17170;DHT22;8700;48.222;16.342;2022-08-25T11:34:43;32.80;98.40
17170;DHT22;8700;48.222;16.342;2022-08-25T11:38:21;33.30;98.10
17170;DHT22;8700;48.222;16.342;2022-08-25T11:41:56;33.60;97.40
17170;DHT22;8700;48.222;16.342;2022-08-25T11:45:34;33.80;97.20
17170;DHT22;8700;48.222;16.342;2022-08-25T11:49:07;33.90;96.00
17170;DHT22;8700;48.222;16.342;2022-08-25T11:52:50;33.40;96.40
17170;DHT22;8700;48.222;16.342;2022-08-25T11:56:33;33.40;96.20
17170;DHT22;8700;48.222;16.342;2022-08-25T12:00:08;32.80;96.70
17170;DHT22;8700;48.222;16.342;2022-08-25T12:03:48;32.10;97.20
17170;DHT22;8700;48.222;16.342;2022-08-25T12:11:57;32.70;97.10
17170;DHT22;8700;48.222;16.342;2022-08-25T12:15:20;32.90;96.60
17170;DHT22;8700;48.222;16.342;2022-08-25T12:18:44;32.80;96.80
17170;DHT22;8700;48.222;16.342;2022-08-25T12:26:06;32.90;96.30
17170;DHT22;8700;48.222;16.342;2022-08-25T12:29:38;32.40;96.30
17170;DHT22;8700;48.222;16.342;2022-08-25T12:33:07;31.40;97.90
17170;DHT22;8700;48.222;16.342;2022-08-25T12:36:33;31.30;98.20
17170;DHT22;8700;48.222;16.342;2022-08-25T12:39:58;32.00;97.50
17170;DHT22;8700;48.222;16.342;2022-08-25T12:43:24;32.10;97.10
17170;DHT22;8700;48.222;16.342;2022-08-25T12:47:06;31.80;97.10
17170;DHT22;8700;48.222;16.342;2022-08-25T12:50:38;31.90;97.10
17170;DHT22;8700;48.222;16.342;2022-08-25T12:54:11;31.90;97.30
17170;DHT22;8700;48.222;16.342;2022-08-25T12:57:39;32.00;97.20
17170;DHT22;8700;48.222;16.342;2022-08-25T13:01:12;31.50;97.40
17170;DHT22;8700;48.222;16.342;2022-08-25T13:05:13;31.30;97.80
17170;DHT22;8700;48.222;16.342;2022-08-25T13:12:32;31.90;97.00
17170;DHT22;8700;48.222;16.342;2022-08-25T13:15:59;31.70;96.90
17170;DHT22;8700;48.222;16.342;2022-08-25T13:19:21;31.70;96.90
17170;DHT22;8700;48.222;16.342;2022-08-25T13:22:47;31.50;97.20
17170;DHT22;8700;48.222;16.342;2022-08-25T13:26:11;30.60;98.40
17170;DHT22;8700;48.222;16.342;2022-08-25T13:29:49;30.00;99.80
17170;DHT22;8700;48.222;16.342;2022-08-25T13:33:16;30.40;99.50
17170;DHT22;8700;48.222;16.342;2022-08-25T13:36:42;30.70;98.80
17170;DHT22;8700;48.222;16.342;2022-08-25T13:40:25;30.60;99.40
17170;DHT22;8700;48.222;16.342;2022-08-25T13:43:46;31.20;98.70
17170;DHT22;8700;48.222;16.342;2022-08-25T13:47:11;31.70;97.70
17170;DHT22;8700;48.222;16.342;2022-08-25T13:50:35;31.70;97.60
17170;DHT22;8700;48.222;16.342;2022-08-25T13:53:59;31.90;96.90
17170;DHT22;8700;48.222;16.342;2022-08-25T13:57:25;31.90;95.90
17170;DHT22;8700;48.222;16.342;2022-08-25T14:01:00;31.80;96.30
17170;DHT22;8700;48.222;16.342;2022-08-25T14:04:26;31.90;96.10
17170;DHT22;8700;48.222;16.342;2022-08-25T14:07:52;31.80;95.90
17170;DHT22;8700;48.222;16.342;2022-08-25T14:11:26;31.60;95.80
17170;DHT22;8700;48.222;16.342;2022-08-25T14:14:58;32.00;95.80
17170;DHT22;8700;48.222;16.342;2022-08-25T14:18:23;31.70;96.40
17170;DHT22;8700;48.222;16.342;2022-08-25T14:21:48;31.90;96.60
17170;DHT22;8700;48.222;16.342;2022-08-25T14:25:11;32.30;96.10
17170;DHT22;8700;48.222;16.342;2022-08-25T14:28:34;32.20;95.80
17170;DHT22;8700;48.222;16.342;2022-08-25T14:31:58;31.80;96.20
17170;DHT22;8700;48.222;16.342;2022-08-25T14:35:20;31.70;96.20
17170;DHT22;8700;48.222;16.342;2022-08-25T14:38:41;31.90;95.90
17170;DHT22;8700;48.222;16.342;2022-08-25T14:42:03;31.70;95.40
17170;DHT22;8700;48.222;16.342;2022-08-25T14:45:25;31.90;95.50
17170;DHT22;8700;48.222;16.342;2022-08-25T14:48:50;32.30;94.90
17170;DHT22;8700;48.222;16.342;2022-08-25T14:52:17;32.20;95.30
17170;DHT22;8700;48.222;16.342;2022-08-25T14:55:39;32.00;95.70
17170;DHT22;8700;48.222;16.342;2022-08-25T14:59:01;32.00;96.00
17170;DHT22;8700;48.222;16.342;2022-08-25T15:02:23;32.00;95.60
17170;DHT22;8700;48.222;16.342;2022-08-25T15:05:46;31.80;95.40
17170;DHT22;8700;48.222;16.342;2022-08-25T15:09:10;31.70;95.90
17170;DHT22;8700;48.222;16.342;2022-08-25T15:12:31;31.50;96.00
17170;DHT22;8700;48.222;16.342;2022-08-25T15:15:53;31.60;95.10
17170;DHT22;8700;48.222;16.342;2022-08-25T15:19:16;31.20;95.60
17170;DHT22;8700;48.222;16.342;2022-08-25T15:22:39;31.20;94.50
17170;DHT22;8700;48.222;16.342;2022-08-25T15:26:01;31.10;94.70
17170;DHT22;8700;48.222;16.342;2022-08-25T15:29:23;31.00;94.50
17170;DHT22;8700;48.222;16.342;2022-08-25T15:32:46;30.90;95.20
17170;DHT22;8700;48.222;16.342;2022-08-25T15:36:11;30.40;96.50
17170;DHT22;8700;48.222;16.342;2022-08-25T15:39:34;30.30;97.00
17170;DHT22;8700;48.222;16.342;2022-08-25T15:42:56;30.50;97.00
17170;DHT22;8700;48.222;16.342;2022-08-25T15:46:19;30.70;96.40
17170;DHT22;8700;48.222;16.342;2022-08-25T15:49:42;30.70;96.60
17170;DHT22;8700;48.222;16.342;2022-08-25T15:53:04;30.70;97.00
17170;DHT22;8700;48.222;16.342;2022-08-25T15:56:27;30.60;96.70
17170;DHT22;8700;48.222;16.342;2022-08-25T15:59:48;30.60;97.00
17170;DHT22;8700;48.222;16.342;2022-08-25T16:03:11;30.50;97.20
17170;DHT22;8700;48.222;16.342;2022-08-25T16:06:33;30.40;97.30
17170;DHT22;8700;48.222;16.342;2022-08-25T16:09:55;30.30;98.00
17170;DHT22;8700;48.222;16.342;2022-08-25T16:13:18;30.10;98.90
17170;DHT22;8700;48.222;16.342;2022-08-25T16:16:39;30.00;99.60
17170;DHT22;8700;48.222;16.342;2022-08-25T16:20:02;30.10;99.70
17170;DHT22;8700;48.222;16.342;2022-08-25T16:23:24;29.80;99.90
17170;DHT22;8700;48.222;16.342;2022-08-25T16:26:46;29.80;99.90
17170;DHT22;8700;48.222;16.342;2022-08-25T16:30:12;29.80;99.90
17170;DHT22;8700;48.222;16.342;2022-08-25T16:33:34;29.80;99.90
17170;DHT22;8700;48.222;16.342;2022-08-25T16:36:55;29.80;99.90
17170;DHT22;8700;48.222;16.342;2022-08-25T16:40:17;29.70;99.90
17170;DHT22;8700;48.222;16.342;2022-08-25T16:43:42;29.70;99.90
17170;DHT22;8700;48.222;16.342;2022-08-25T16:47:05;29.60;99.90
17170;DHT22;8700;48.222;16.342;2022-08-25T16:50:27;29.50;99.90
17170;DHT22;8700;48.222;16.342;2022-08-25T16:53:50;29.40;99.90
17170;DHT22;8700;48.222;16.342;2022-08-25T16:57:28;29.40;99.90
17170;DHT22;8700;48.222;16.342;2022-08-25T17:00:50;29.30;99.90
17170;DHT22;8700;48.222;16.342;2022-08-25T17:04:12;29.20;99.90
17170;DHT22;8700;48.222;16.342;2022-08-25T17:07:34;29.30;99.90
17170;DHT22;8700;48.222;16.342;2022-08-25T17:11:04;29.30;99.90
17170;DHT22;8700;48.222;16.342;2022-08-25T17:14:26;29.20;99.90
17170;DHT22;8700;48.222;16.342;2022-08-25T17:17:47;29.10;99.90
17170;DHT22;8700;48.222;16.342;2022-08-25T17:21:12;29.10;99.90
17170;DHT22;8700;48.222;16.342;2022-08-25T17:24:34;29.20;99.90
17170;DHT22;8700;48.222;16.342;2022-08-25T17:27:55;29.10;99.90
17170;DHT22;8700;48.222;16.342;2022-08-25T17:31:17;29.10;99.90
17170;DHT22;8700;48.222;16.342;2022-08-25T17:34:39;29.00;99.90
17170;DHT22;8700;48.222;16.342;2022-08-25T17:38:02;28.90;99.90
17170;DHT22;8700;48.222;16.342;2022-08-25T17:41:24;28.90;99.90
17170;DHT22;8700;48.222;16.342;2022-08-25T17:44:45;28.90;99.90
17170;DHT22;8700;48.222;16.342;2022-08-25T17:48:08;28.80;99.90
17170;DHT22;8700;48.222;16.342;2022-08-25T17:51:29;28.80;99.90
17170;DHT22;8700;48.222;16.342;2022-08-25T17:54:52;28.80;99.90
17170;DHT22;8700;48.222;16.342;2022-08-25T17:58:15;28.70;99.90
17170;DHT22;8700;48.222;16.342;2022-08-25T18:01:37;28.60;99.90
17170;DHT22;8700;48.222;16.342;2022-08-25T18:05:01;28.60;99.90
17170;DHT22;8700;48.222;16.342;2022-08-25T18:08:22;28.50;99.90
17170;DHT22;8700;48.222;16.342;2022-08-25T18:11:45;28.40;99.90
17170;DHT22;8700;48.222;16.342;2022-08-25T18:15:08;28.40;99.90
17170;DHT22;8700;48.222;16.342;2022-08-25T18:18:30;28.30;99.90
17170;DHT22;8700;48.222;16.342;2022-08-25T18:21:52;28.30;99.90
17170;DHT22;8700;48.222;16.342;2022-08-25T18:25:15;28.30;99.90
17170;DHT22;8700;48.222;16.342;2022-08-25T18:28:38;28.20;99.90
17170;DHT22;8700;48.222;16.342;2022-08-25T18:31:59;28.10;99.90
17170;DHT22;8700;48.222;16.342;2022-08-25T18:35:21;28.00;99.90
17170;DHT22;8700;48.222;16.342;2022-08-25T18:38:42;27.80;99.90
17170;DHT22;8700;48.222;16.342;2022-08-25T18:42:21;27.70;99.90
17170;DHT22;8700;48.222;16.342;2022-08-25T18:45:45;27.50;99.90
17170;DHT22;8700;48.222;16.342;2022-08-25T18:49:07;27.40;99.90
17170;DHT22;8700;48.222;16.342;2022-08-25T18:52:28;27.30;99.90
17170;DHT22;8700;48.222;16.342;2022-08-25T18:55:51;27.20;99.90
17170;DHT22;8700;48.222;16.342;2022-08-25T18:59:13;26.90;99.90
17170;DHT22;8700;48.222;16.342;2022-08-25T19:02:36;26.80;99.90
17170;DHT22;8700;48.222;16.342;2022-08-25T19:05:58;26.60;99.90
17170;DHT22;8700;48.222;16.342;2022-08-25T19:09:25;26.40;99.90
17170;DHT22;8700;48.222;16.342;2022-08-25T19:12:48;26.20;99.90
17170;DHT22;8700;48.222;16.342;2022-08-25T19:16:13;26.10;99.90
17170;DHT22;8700;48.222;16.342;2022-08-25T19:19:37;26.00;99.90
17170;DHT22;8700;48.222;16.342;2022-08-25T19:23:01;25.80;99.90
17170;DHT22;8700;48.222;16.342;2022-08-25T19:26:23;25.80;99.90
17170;DHT22;8700;48.222;16.342;2022-08-25T19:29:45;25.80;99.90
17170;DHT22;8700;48.222;16.342;2022-08-25T19:33:07;25.80;99.90
17170;DHT22;8700;48.222;16.342;2022-08-25T19:36:31;25.80;99.90
17170;DHT22;8700;48.222;16.342;2022-08-25T19:39:53;25.70;99.90
17170;DHT22;8700;48.222;16.342;2022-08-25T19:43:16;25.60;99.90
17170;DHT22;8700;48.222;16.342;2022-08-25T19:46:39;25.30;99.90
17170;DHT22;8700;48.222;16.342;2022-08-25T19:50:01;25.10;99.90
17170;DHT22;8700;48.222;16.342;2022-08-25T19:53:24;25.10;99.90
17170;DHT22;8700;48.222;16.342;2022-08-25T19:56:45;25.00;99.90
17170;DHT22;8700;48.222;16.342;2022-08-25T20:00:08;25.00;99.90
17170;DHT22;8700;48.222;16.342;2022-08-25T20:03:31;25.10;99.90
17170;DHT22;8700;48.222;16.342;2022-08-25T20:06:52;25.10;99.90
17170;DHT22;8700;48.222;16.342;2022-08-25T20:10:16;25.00;99.90
17170;DHT22;8700;48.222;16.342;2022-08-25T20:13:37;25.00;99.90
17170;DHT22;8700;48.222;16.342;2022-08-25T20:16:59;24.80;99.90
17170;DHT22;8700;48.222;16.342;2022-08-25T20:20:20;24.70;99.90
17170;DHT22;8700;48.222;16.342;2022-08-25T20:23:42;24.60;99.90
17170;DHT22;8700;48.222;16.342;2022-08-25T20:27:24;24.60;99.90
17170;DHT22;8700;48.222;16.342;2022-08-25T20:30:45;24.60;99.90
17170;DHT22;8700;48.222;16.342;2022-08-25T20:34:07;24.60;99.90
17170;DHT22;8700;48.222;16.342;2022-08-25T20:37:29;24.50;99.90
17170;DHT22;8700;48.222;16.342;2022-08-25T20:40:51;24.50;99.90
17170;DHT22;8700;48.222;16.342;2022-08-25T20:44:14;24.50;99.90
17170;DHT22;8700;48.222;16.342;2022-08-25T20:47:35;24.50;99.90
17170;DHT22;8700;48.222;16.342;2022-08-25T20:50:58;24.50;99.90
17170;DHT22;8700;48.222;16.342;2022-08-25T20:54:24;24.50;99.90
17170;DHT22;8700;48.222;16.342;2022-08-25T20:57:46;24.40;99.90
17170;DHT22;8700;48.222;16.342;2022-08-25T21:01:10;24.20;99.90
17170;DHT22;8700;48.222;16.342;2022-08-25T21:04:34;24.00;99.90
17170;DHT22;8700;48.222;16.342;2022-08-25T21:07:55;23.90;99.90
17170;DHT22;8700;48.222;16.342;2022-08-25T21:11:17;23.90;99.90
17170;DHT22;8700;48.222;16.342;2022-08-25T21:14:40;23.80;99.90
17170;DHT22;8700;48.222;16.342;2022-08-25T21:18:04;23.60;99.90
17170;DHT22;8700;48.222;16.342;2022-08-25T21:21:26;23.50;99.90
17170;DHT22;8700;48.222;16.342;2022-08-25T21:24:47;23.50;99.90
17170;DHT22;8700;48.222;16.342;2022-08-25T21:28:10;23.40;99.90
17170;DHT22;8700;48.222;16.342;2022-08-25T21:31:32;23.30;99.90
17170;DHT22;8700;48.222;16.342;2022-08-25T21:34:55;23.30;99.90
17170;DHT22;8700;48.222;16.342;2022-08-25T21:38:17;23.30;99.90
17170;DHT22;8700;48.222;16.342;2022-08-25T21:41:39;23.30;99.90
17170;DHT22;8700;48.222;16.342;2022-08-25T21:45:03;23.30;99.90
17170;DHT22;8700;48.222;16.342;2022-08-25T21:48:26;23.30;99.90
17170;DHT22;8700;48.222;16.342;2022-08-25T21:51:50;23.40;99.90